Time;durP1;ratioP1;P1;durP2;ratioP2;P2;SDS_P1;SDS_P2;PMS_P1;PMS_P2;Temp;Humidity;BMP_temperature;BMP_pressure;BME280_temperature;BME280_humidity;BME280_pressure;Samples;Min_cycle;Max_cycle;Signal;HPM_P1;HPM_P2
2022/01/11 00:00:21;;;;;;;83.32;33.67;;;;;;;-146.64;100.00;75609.88;5111073;27;20034;-74
2022/01/11 00:02:49;;;;;;;86.43;34.20;;;;;;;-146.64;100.00;74816.84;5125064;27;20474;-74
2022/01/11 00:05:38;;;;;;;98.50;37.60;;;;;;;-146.64;100.00;74552.53;5093242;28;20367;-73
2022/01/11 00:08:07;;;;;;;98.07;37.95;;;;;;;-146.64;100.00;74816.84;5113407;27;20079;-74
2022/01/11 00:10:38;;;;;;;92.07;38.28;;;;;;;-146.64;100.00;75081.16;5095349;28;20547;-73
2022/01/11 00:13:03;;;;;;;98.43;38.08;;;;;;;-146.64;100.00;75345.50;5099379;28;20466;-73
2022/01/11 00:15:30;;;;;;;98.70;38.45;;;;;;;-146.64;100.00;75609.88;5093735;28;20035;-73
2022/01/11 00:17:57;;;;;;;102.60;39.35;;;;;;;-146.64;100.00;75081.16;5091345;28;20130;-73
2022/01/11 00:20:23;;;;;;;109.50;42.58;;;;;;;-146.64;100.00;75081.16;5086545;28;20031;-73
2022/01/11 00:25:28;;;;;;;106.80;42.25;;;;;;;-146.64;100.00;74023.97;5115931;27;20307;-74
2022/01/11 00:27:53;;;;;;;105.28;41.22;;;;;;;-146.64;100.00;74552.53;5104800;28;20068;-73
2022/01/11 00:30:19;;;;;;;109.07;41.33;;;;;;;-146.64;100.00;74288.22;5107418;28;20102;-73
2022/01/11 00:32:50;;;;;;;104.37;40.00;;;;;;;-146.64;100.00;74552.53;5108827;28;20100;-74
2022/01/11 00:35:17;;;;;;;97.70;37.80;;;;;;;-146.64;100.00;73759.69;5096562;28;20429;-73
2022/01/11 00:37:43;;;;;;;102.30;38.90;;;;;;;-146.64;100.00;73495.47;5107162;27;20023;-74
2022/01/11 00:40:09;;;;;;;87.00;36.15;;;;;;;-146.64;100.00;72702.84;5084164;28;20042;-74
2022/01/11 00:42:34;;;;;;;91.68;35.88;;;;;;;-146.64;100.00;73231.22;5107095;28;20474;-73
2022/01/11 00:45:01;;;;;;;83.88;33.53;;;;;;;-146.64;100.00;72438.66;5107928;28;20031;-73
2022/01/11 00:47:27;;;;;;;78.78;32.83;;;;;;;-146.64;100.00;72702.84;5110394;27;20067;-73
2022/01/11 00:49:53;;;;;;;78.95;33.15;;;;;;;-146.64;100.00;73231.22;5099559;28;20038;-73
2022/01/11 00:52:19;;;;;;;74.28;30.92;;;;;;;-146.64;100.00;72967.03;5113923;27;20044;-73
2022/01/11 00:54:44;;;;;;;73.05;31.15;;;;;;;-146.64;100.00;72438.66;5092103;28;20075;-73
2022/01/11 00:57:09;;;;;;;72.53;30.88;;;;;;;-146.64;100.00;72967.03;5110237;28;20066;-73
2022/01/11 00:59:35;;;;;;;67.72;30.83;;;;;;;-146.64;100.00;74288.22;5101206;28;20787;-74
2022/01/11 01:02:00;;;;;;;70.78;30.80;;;;;;;-146.64;100.00;74023.97;5080778;28;20020;-74
2022/01/11 01:04:26;;;;;;;70.32;30.40;;;;;;;-146.64;100.00;73759.69;5110448;28;20034;-73
2022/01/11 01:06:51;;;;;;;75.47;33.15;;;;;;;-146.64;100.00;72967.03;5094404;28;20023;-74
2022/01/11 01:09:16;;;;;;;72.97;31.00;;;;;;;-146.64;100.00;72967.03;5104664;27;20035;-73
2022/01/11 01:11:44;;;;;;;65.05;30.40;;;;;;;-146.64;100.00;72174.50;5107519;28;20027;-73
2022/01/11 01:14:09;;;;;;;68.00;30.50;;;;;;;-146.64;100.00;72438.66;5127806;27;20471;-73
2022/01/11 01:16:35;;;;;;;65.80;29.17;;;;;;;-146.64;100.00;72438.66;5090228;28;20027;-73
2022/01/11 01:19:00;;;;;;;71.70;27.27;;;;;;;-146.64;100.00;71118.06;5106602;28;20082;-73
2022/01/11 01:21:25;;;;;;;66.53;28.75;;;;;;;-146.64;100.00;70589.97;5092554;27;22176;-73
2022/01/11 01:23:51;;;;;;;66.75;26.95;;;;;;;-146.64;100.00;69006.03;5099227;27;20463;-73
2022/01/11 01:26:17;;;;;;;69.25;31.08;;;;;;;-146.64;100.00;68742.09;5108067;27;20056;-73
2022/01/11 01:28:44;;;;;;;58.65;26.38;;;;;;;-146.64;100.00;69006.03;5113932;27;20477;-74
2022/01/11 01:31:10;;;;;;;61.97;28.52;;;;;;;-146.64;100.00;69269.97;5116618;27;20106;-74
2022/01/11 01:33:35;;;;;;;63.03;27.33;;;;;;;-146.64;100.00;69533.94;5100253;27;20027;-74
2022/01/11 01:36:03;;;;;;;64.43;27.13;;;;;;;-146.64;100.00;69269.97;5085646;28;20051;-74
2022/01/11 01:38:30;;;;;;;60.10;27.85;;;;;;;-146.64;100.00;70061.91;5099911;27;20507;-74
2022/01/11 01:41:00;;;;;;;;;;;;;;;-146.64;100.00;71118.06;5116009;27;20444;-74
2022/01/11 01:43:26;;;;;;;59.22;25.50;;;;;;;-146.64;100.00;70854.00;5098782;27;20350;-74
2022/01/11 01:45:52;;;;;;;62.28;28.05;;;;;;;-146.64;100.00;70061.91;5106766;27;20027;-73
2022/01/11 01:48:19;;;;;;;57.63;28.50;;;;;;;-146.64;100.00;70061.91;5112737;27;20142;-74
2022/01/11 01:50:47;;;;;;;66.28;28.92;;;;;;;-146.64;100.00;70061.91;5096862;27;20058;-73
2022/01/11 01:53:14;;;;;;;60.03;28.83;;;;;;;-146.64;100.00;69533.94;5103169;28;20328;-74
2022/01/11 01:55:41;;;;;;;65.65;28.45;;;;;;;-146.64;100.00;68478.19;5095739;27;20023;-73
2022/01/11 01:58:07;;;;;;;61.53;29.05;;;;;;;-146.64;100.00;68742.09;5098375;27;20062;-74
2022/01/11 02:00:40;;;;;;;59.20;29.70;;;;;;;-146.64;100.00;67950.44;5099073;27;20502;-74
2022/01/11 02:03:10;;;;;;;61.92;26.80;;;;;;;-146.64;100.00;67422.72;5101692;27;20086;-74
2022/01/11 02:05:36;;;;;;;61.75;28.55;;;;;;;-146.64;100.00;68214.31;5095602;27;20553;-74
2022/01/11 02:08:01;;;;;;;60.15;28.00;;;;;;;-146.64;100.00;67422.72;5100175;27;20034;-73
2022/01/11 02:10:27;;;;;;;63.33;30.77;;;;;;;-146.64;100.00;67686.56;5108909;27;20030;-73
2022/01/11 02:12:52;;;;;;;58.40;27.90;;;;;;;-146.64;100.00;68214.31;5109938;27;20042;-74
2022/01/11 02:15:18;;;;;;;61.45;26.58;;;;;;;-146.64;100.00;68214.31;5120371;27;20085;-74
2022/01/11 02:17:45;;;;;;;65.88;30.45;;;;;;;-146.64;100.00;66631.31;5105272;27;20045;-73
2022/01/11 02:20:11;;;;;;;64.55;30.80;;;;;;;-146.64;100.00;66367.56;5126384;27;20527;-74
2022/01/11 02:22:37;;;;;;;64.20;30.52;;;;;;;-146.64;100.00;67158.91;5104450;27;20482;-74
2022/01/11 02:25:02;;;;;;;68.00;30.80;;;;;;;-146.64;100.00;66895.09;5092486;27;20114;-74
2022/01/11 02:27:28;;;;;;;68.80;31.38;;;;;;;-146.64;100.00;66895.09;5109177;27;20043;-74
2022/01/11 02:29:53;;;;;;;65.57;31.20;;;;;;;-146.64;100.00;67422.72;5084666;27;20038;-74
2022/01/11 02:32:19;;;;;;;64.53;30.10;;;;;;;-146.64;100.00;66103.78;5126914;27;20050;-73
2022/01/11 02:34:44;;;;;;;62.17;30.27;;;;;;;-146.64;100.00;65840.06;5110256;27;20117;-74
2022/01/11 02:37:09;;;;;;;58.92;30.80;;;;;;;-146.64;100.00;66103.78;5105078;27;20038;-74
2022/01/11 02:39:35;;;;;;;66.55;30.95;;;;;;;-146.64;100.00;67950.44;5130582;27;20066;-73
2022/01/11 02:42:02;;;;;;;66.97;31.10;;;;;;;-146.64;100.00;67686.56;5103870;27;20081;-74
2022/01/11 02:44:28;;;;;;;62.10;29.17;;;;;;;-146.64;100.00;67422.72;5090412;28;20495;-74
2022/01/11 02:46:53;;;;;;;60.53;29.13;;;;;;;-146.64;100.00;67158.91;5107813;27;20368;-74
2022/01/11 02:49:19;;;;;;;67.22;30.90;;;;;;;-146.64;100.00;66631.31;5129727;27;20067;-74
2022/01/11 02:51:45;;;;;;;65.18;30.88;;;;;;;-146.64;100.00;65576.34;5105163;28;20493;-74
2022/01/11 02:54:11;;;;;;;65.78;31.00;;;;;;;-146.64;100.00;66631.31;5129071;27;20035;-74
2022/01/11 02:56:36;;;;;;;65.82;31.45;;;;;;;-146.64;100.00;66367.56;5095692;27;20546;-74
2022/01/11 02:59:02;;;;;;;61.03;28.95;;;;;;;-146.64;100.00;66367.56;5086677;27;20049;-74
2022/01/11 03:01:28;;;;;;;62.03;30.90;;;;;;;-146.64;100.00;66103.78;5111869;27;20050;-74
2022/01/11 03:03:53;;;;;;;61.83;30.85;;;;;;;-146.64;100.00;65576.34;5093285;28;20070;-74
2022/01/11 03:06:19;;;;;;;65.45;32.50;;;;;;;-146.64;100.00;64785.31;5099490;27;20325;-74
2022/01/11 03:08:46;;;;;;;70.13;32.35;;;;;;;-146.64;100.00;64785.31;5124785;27;20105;-73
2022/01/11 03:11:13;;;;;;;66.50;31.67;;;;;;;-146.64;100.00;65840.06;5105526;27;20034;-73
2022/01/11 03:13:40;;;;;;;64.00;30.83;;;;;;;-146.64;100.00;65840.06;5094196;27;20039;-74
2022/01/11 03:16:06;;;;;;;64.45;31.00;;;;;;;-146.64;100.00;65840.06;5127386;27;20031;-73
2022/01/11 03:18:31;;;;;;;66.82;31.70;;;;;;;-146.64;100.00;64258.03;5095191;27;20424;-74
2022/01/11 03:20:57;;;;;;;63.33;31.08;;;;;;;-146.64;100.00;64521.66;5091109;27;20244;-74
2022/01/11 03:23:22;;;;;;;54.28;29.55;;;;;;;-146.64;100.00;63467.22;5107188;27;20019;-74
2022/01/11 03:25:51;;;;;;;56.78;29.45;;;;;;;-146.64;100.00;63994.41;5110230;27;20470;-74
2022/01/11 03:28:18;;;;;;;56.10;27.73;;;;;;;-146.64;100.00;64521.66;5103196;27;20031;-74
2022/01/11 03:30:43;;;;;;;43.90;23.40;;;;;;;-146.64;100.00;65312.66;5092930;27;20088;-74
2022/01/11 03:33:08;;;;;;;59.67;30.58;;;;;;;-146.64;100.00;65576.34;5130437;27;20525;-74
2022/01/11 03:35:39;;;;;;;60.67;29.92;;;;;;;-146.64;100.00;65840.06;5107750;28;20031;-74
2022/01/11 03:38:05;;;;;;;59.00;28.38;;;;;;;-146.64;100.00;66367.56;5110468;27;20020;-74
2022/01/11 03:40:31;;;;;;;60.78;31.02;;;;;;;-146.64;100.00;66367.56;5100486;28;20027;-75
2022/01/11 03:42:56;;;;;;;63.53;31.48;;;;;;;-146.64;100.00;66367.56;5094542;27;20057;-74
2022/01/11 03:45:22;;;;;;;64.10;31.73;;;;;;;-146.64;100.00;66631.31;5110501;28;20061;-73
2022/01/11 03:47:49;;;;;;;60.33;30.88;;;;;;;-146.64;100.00;66103.78;5101153;28;20031;-74
2022/01/11 03:50:14;;;;;;;;;;;;;;;-146.64;100.00;66367.56;5104172;27;20019;-73
2022/01/11 03:52:40;;;;;;;60.50;29.80;;;;;;;-146.64;100.00;66103.78;5119524;27;19972;-74
2022/01/11 03:55:12;;;;;;;62.13;32.55;;;;;;;-146.64;100.00;67158.91;5100118;27;20064;-74
2022/01/11 03:57:39;;;;;;;63.22;32.15;;;;;;;-146.64;100.00;67686.56;5090929;28;20020;-74
2022/01/11 04:00:11;;;;;;;69.13;32.20;;;;;;;-146.64;100.00;67686.56;5094179;27;20363;-74
2022/01/11 04:02:36;;;;;;;61.03;30.42;;;;;;;-146.64;100.00;67158.91;5087606;28;20120;-74
2022/01/11 04:05:03;;;;;;;70.05;31.20;;;;;;;-146.64;100.00;65840.06;5089365;27;20027;-74
2022/01/11 04:07:28;;;;;;;67.37;31.37;;;;;;;-146.64;100.00;66367.56;5096443;28;20031;-75
2022/01/11 04:09:55;;;;;;;63.45;31.15;;;;;;;-146.64;100.00;65048.97;5090006;28;20793;-74
2022/01/11 04:12:22;;;;;;;64.40;32.95;;;;;;;-146.64;100.00;64785.31;5113009;27;20085;-73
2022/01/11 04:14:47;;;;;;;64.80;32.15;;;;;;;-146.64;100.00;65312.66;5092847;28;20478;-74
2022/01/11 04:17:15;;;;;;;65.60;31.98;;;;;;;-146.64;100.00;65576.34;5095426;28;20031;-74
2022/01/11 04:19:42;;;;;;;64.95;30.92;;;;;;;-146.64;100.00;66631.31;5086884;28;20031;-74
2022/01/11 04:22:07;;;;;;;74.18;33.45;;;;;;;-146.64;100.00;67422.72;5110336;27;20077;-74
2022/01/11 04:24:33;;;;;;;66.80;33.45;;;;;;;-146.64;100.00;67950.44;5092105;28;20076;-73
2022/01/11 04:26:58;;;;;;;72.45;33.38;;;;;;;-146.64;100.00;68478.19;5084460;28;20043;-74
2022/01/11 04:29:23;;;;;;;67.28;32.00;;;;;;;-146.64;100.00;69269.97;5103502;28;20031;-74
2022/01/11 04:31:49;;;;;;;71.10;32.53;;;;;;;-146.64;100.00;69533.94;5123551;27;20031;-74
2022/01/11 04:34:15;;;;;;;65.88;32.55;;;;;;;-146.64;100.00;68742.09;5104866;27;20446;-74
2022/01/11 04:36:40;;;;;;;76.07;33.95;;;;;;;-146.64;100.00;68478.19;5108241;28;20102;-74
2022/01/11 04:39:09;;;;;;;69.80;32.45;;;;;;;-146.64;100.00;68742.09;5092622;27;20138;-74
2022/01/11 04:41:34;;;;;;;71.03;32.55;;;;;;;-146.64;100.00;69006.03;5092875;28;20065;-74
2022/01/11 04:43:59;;;;;;;65.43;31.58;;;;;;;-146.64;100.00;69269.97;5092247;28;20483;-73
2022/01/11 04:46:26;;;;;;;73.38;32.15;;;;;;;-146.64;100.00;68742.09;5085591;27;20027;-74
2022/01/11 04:48:52;;;;;;;57.55;25.08;;;;;;;-146.64;100.00;69006.03;5093655;28;20937;-74
2022/01/11 04:51:17;;;;;;;61.30;32.30;;;;;;;-146.64;100.00;69533.94;5096048;28;20070;-74
2022/01/11 04:53:43;;;;;;;70.35;33.90;;;;;;;-146.64;100.00;69269.97;5100850;28;20120;-73
2022/01/11 04:56:08;;;;;;;68.82;32.53;;;;;;;-146.64;100.00;69797.91;5111465;27;20495;-74
2022/01/11 04:58:34;;;;;;;63.03;31.20;;;;;;;-146.64;100.00;69797.91;5113150;27;20031;-74
2022/01/11 05:01:01;;;;;;;69.50;34.03;;;;;;;-146.64;100.00;69006.03;5114665;27;20027;-74
2022/01/11 05:03:26;;;;;;;50.63;25.33;;;;;;;-146.64;100.00;68742.09;5130314;27;20020;-73
2022/01/11 05:05:51;;;;;;;68.63;33.13;;;;;;;-146.64;100.00;68214.31;5111943;27;20035;-73
2022/01/11 05:08:17;;;;;;;76.15;32.60;;;;;;;-146.64;100.00;67950.44;5110174;27;20095;-73
2022/01/11 05:10:42;;;;;;;69.88;32.78;;;;;;;-146.64;100.00;67158.91;5120343;27;20036;-73
2022/01/11 05:13:16;;;;;;;69.78;32.63;;;;;;;-146.64;100.00;67422.72;5103267;27;20464;-74
2022/01/11 05:15:42;;;;;;;68.88;31.33;;;;;;;-146.64;100.00;68214.31;5105628;27;20421;-74
2022/01/11 05:18:08;;;;;;;68.10;32.53;;;;;;;-146.64;100.00;68214.31;5093490;27;20122;-73
2022/01/11 05:20:34;;;;;;;66.90;30.58;;;;;;;-146.64;100.00;67950.44;5113809;27;20070;-74
2022/01/11 05:22:59;;;;;;;72.35;32.47;;;;;;;-146.64;100.00;68742.09;5102321;27;20043;-74
2022/01/11 05:25:25;;;;;;;68.13;32.33;;;;;;;-146.64;100.00;67686.56;5082964;27;20042;-74
2022/01/11 05:27:52;;;;;;;70.10;31.95;;;;;;;-146.64;100.00;67950.44;5103208;27;20046;-73
2022/01/11 05:30:19;;;;;;;70.95;33.80;;;;;;;-146.64;100.00;66895.09;5103975;27;20555;-73
2022/01/11 05:32:44;;;;;;;62.70;29.90;;;;;;;-146.64;100.00;66895.09;5098104;27;20478;-73
2022/01/11 05:35:11;;;;;;;57.20;25.30;;;;;;;-146.64;100.00;65576.34;5112929;27;20042;-74
2022/01/11 05:37:37;;;;;;;76.95;34.40;;;;;;;-146.64;100.00;65840.06;5101521;27;20032;-74
2022/01/11 05:40:04;;;;;;;67.63;31.67;;;;;;;-146.64;100.00;67158.91;5092717;27;20026;-74
2022/01/11 05:42:30;;;;;;;70.93;32.05;;;;;;;-146.64;100.00;67950.44;5108929;27;20428;-74
2022/01/11 05:44:56;;;;;;;69.22;33.78;;;;;;;-146.64;100.00;67422.72;5125211;27;20023;-74
2022/01/11 05:47:21;;;;;;;73.55;32.78;;;;;;;-146.64;100.00;67686.56;5088535;28;20390;-74
2022/01/11 05:49:47;;;;;;;70.82;31.85;;;;;;;-146.64;100.00;68214.31;5104520;27;20040;-74
2022/01/11 05:52:12;;;;;;;70.95;32.22;;;;;;;-146.64;100.00;68742.09;5134413;27;20075;-74
2022/01/11 05:54:38;;;;;;;72.53;32.13;;;;;;;-146.64;100.00;67422.72;5098625;27;20034;-74
2022/01/11 05:57:03;;;;;;;66.28;31.40;;;;;;;-146.64;100.00;67158.91;5104359;28;20023;-74
2022/01/11 05:59:29;;;;;;;67.75;31.05;;;;;;;-146.64;100.00;66103.78;5111981;27;20025;-74
2022/01/11 06:01:54;;;;;;;65.05;30.52;;;;;;;-146.64;100.00;66103.78;5127450;27;20035;-74
2022/01/11 06:04:19;;;;;;;61.22;29.38;;;;;;;-146.64;100.00;64521.66;5108757;27;20038;-73
2022/01/11 06:06:45;;;;;;;65.35;29.90;;;;;;;-146.64;100.00;65048.97;5112063;27;20027;-74
2022/01/11 06:09:10;;;;;;;60.67;29.70;;;;;;;-146.64;100.00;65312.66;5110708;27;20023;-74
2022/01/11 06:11:36;;;;;;;54.63;28.20;;;;;;;-146.64;100.00;66103.78;5114382;27;20391;-74
2022/01/11 06:14:01;;;;;;;59.95;29.08;;;;;;;-146.64;100.00;66631.31;5111624;27;20530;-73
2022/01/11 06:16:27;;;;;;;58.75;29.25;;;;;;;-146.64;100.00;67158.91;5114174;27;20031;-74
2022/01/11 06:18:52;;;;;;;59.42;27.23;;;;;;;-146.64;100.00;66367.56;5111077;27;20452;-74
2022/01/11 06:21:17;;;;;;;54.47;26.23;;;;;;;-146.64;100.00;65576.34;5090455;27;20436;-74
2022/01/11 06:23:43;;;;;;;55.53;27.70;;;;;;;-146.64;100.00;64785.31;5110295;27;20109;-74
2022/01/11 06:26:08;;;;;;;54.25;26.23;;;;;;;-146.64;100.00;64521.66;5094357;27;20088;-73
2022/01/11 06:28:34;;;;;;;56.47;25.98;;;;;;;-146.64;100.00;64521.66;5115999;27;20103;-74
2022/01/11 06:30:59;;;;;;;49.22;25.75;;;;;;;-146.64;100.00;65048.97;5114027;27;20038;-74
2022/01/11 06:33:25;;;;;;;53.40;25.52;;;;;;;-146.64;100.00;66367.56;5107311;27;20035;-75
2022/01/11 06:35:50;;;;;;;54.65;25.42;;;;;;;-146.64;100.00;65048.97;5099142;27;20482;-73
2022/01/11 06:38:16;;;;;;;52.70;25.40;;;;;;;-146.64;100.00;64785.31;5097291;27;20052;-74
2022/01/11 06:40:41;;;;;;;55.42;26.02;;;;;;;-146.64;100.00;64521.66;5115230;27;20505;-74
2022/01/11 06:43:07;;;;;;;46.90;24.65;;;;;;;-146.64;100.00;64785.31;5098016;27;20054;-74
2022/01/11 06:45:33;;;;;;;50.20;25.15;;;;;;;-146.64;100.00;65312.66;5134298;27;20030;-74
2022/01/11 06:48:00;;;;;;;;;;;;;;;-146.64;100.00;65048.97;5117806;27;20023;-74
2022/01/11 06:50:26;;;;;;;40.60;20.95;;;;;;;-146.64;100.00;64258.03;5111778;27;19912;-74
2022/01/11 06:52:51;;;;;;;43.93;23.63;;;;;;;-146.64;100.00;62940.13;5112997;28;20510;-74
2022/01/11 06:55:17;;;;;;;48.88;23.48;;;;;;;-146.64;100.00;61886.13;5078563;28;20115;-74
2022/01/11 06:57:42;;;;;;;40.17;21.33;;;;;;;-146.64;100.00;59778.97;5113087;28;20023;-74
2022/01/11 07:00:09;;;;;;;49.47;24.90;;;;;;;-146.64;100.00;57672.94;5108913;28;20028;-74
2022/01/11 07:02:34;;;;;;;42.28;21.60;;;;;;;-146.64;100.00;58989.09;5110407;28;20027;-74
2022/01/11 07:05:00;;;;;;;44.50;22.75;;;;;;;-146.64;100.00;59515.66;5092753;28;20035;-74
2022/01/11 07:07:25;;;;;;;44.60;23.92;;;;;;;-146.64;100.00;59778.97;5092056;28;20188;-74
2022/01/11 07:09:53;;;;;;;44.65;22.63;;;;;;;-146.64;100.00;59252.38;5111190;28;20031;-74
2022/01/11 07:12:18;;;;;;;43.53;22.90;;;;;;;-146.64;100.00;58989.09;5112914;28;20089;-74
2022/01/11 07:14:43;;;;;;;45.17;21.98;;;;;;;-146.64;100.00;56883.47;5087625;28;20150;-73
2022/01/11 07:17:09;;;;;;;43.03;21.50;;;;;;;-146.64;100.00;55568.03;5109931;27;20038;-74
2022/01/11 07:19:35;;;;;;;40.63;21.27;;;;;;;-146.64;100.00;54778.97;5106087;28;20024;-74
2022/01/11 07:22:00;;;;;;;39.58;21.05;;;;;;;-146.64;100.00;53727.13;5104501;28;20482;-74
2022/01/11 07:24:26;;;;;;;41.58;19.88;;;;;;;-146.64;100.00;53990.06;5104393;28;20081;-74
2022/01/11 07:26:52;;;;;;;33.17;18.98;;;;;;;-146.64;100.00;56094.16;5103593;28;20032;-74
2022/01/11 07:29:17;;;;;;;39.83;21.20;;;;;;;-146.64;100.00;55831.06;5107576;28;20058;-73
2022/01/11 07:31:42;;;;;;;39.20;20.38;;;;;;;-146.64;100.00;56620.34;5086987;28;20570;-74
2022/01/11 07:34:09;;;;;;;39.28;20.42;;;;;;;-146.64;100.00;55305.00;5103873;28;20386;-73
2022/01/11 07:36:34;;;;;;;40.10;20.70;;;;;;;-146.64;100.00;53990.06;5107688;28;20103;-73
2022/01/11 07:39:00;;;;;;;36.72;19.83;;;;;;;-146.64;100.00;54253.00;5107467;27;20110;-73
2022/01/11 07:41:25;;;;;;;38.00;19.17;;;;;;;-146.64;100.00;53061.66;5106916;28;20032;-73
2022/01/11 07:43:51;;;;;;;36.75;20.33;;;;;;;-146.64;100.00;53727.13;5084377;28;20047;-73
2022/01/11 07:46:16;;;;;;;36.05;18.88;;;;;;;-146.64;100.00;53727.13;5083432;28;20019;-73
2022/01/11 07:48:41;;;;;;;34.45;17.45;;;;;;;-146.64;100.00;50639.00;5108391;28;20026;-73
2022/01/11 07:51:07;;;;;;;38.15;20.02;;;;;;;-146.64;100.00;50306.50;5090140;28;20111;-73
2022/01/11 07:53:32;;;;;;;42.47;19.13;;;;;;;-146.64;100.00;50487.13;5116243;27;20019;-73
2022/01/11 07:55:57;;;;;;;35.25;18.77;;;;;;;-146.64;100.00;51338.94;5087432;28;20038;-73
2022/01/11 07:58:23;;;;;;;32.70;18.17;;;;;;;-146.64;100.00;50733.41;5102100;27;20038;-73
2022/01/11 08:00:49;;;;;;;37.22;20.00;;;;;;;-146.64;100.00;50259.31;5105206;27;20026;-73
2022/01/11 08:03:14;;;;;;;37.72;18.38;;;;;;;-146.64;100.00;49992.50;5082927;27;20137;-73
2022/01/11 08:05:39;;;;;;;32.58;17.52;;;;;;;-146.64;100.00;50242.88;5095142;27;20525;-73
2022/01/11 08:08:06;;;;;;;35.42;18.80;;;;;;;-146.64;100.00;49982.25;5091726;28;20538;-74
2022/01/11 08:10:31;;;;;;;36.17;18.73;;;;;;;-146.64;100.00;48742.94;5094081;28;20064;-74
2022/01/11 08:12:56;;;;;;;33.28;18.05;;;;;;;-146.64;100.00;47873.22;5094701;27;20066;-73
2022/01/11 08:15:22;;;;;;;29.98;18.10;;;;;;;-146.64;100.00;47323.56;5130365;28;20491;-73
2022/01/11 08:17:47;;;;;;;35.22;18.50;;;;;;;-146.64;100.00;45908.78;5111795;28;20083;-73
2022/01/11 08:20:13;;;;;;;30.92;17.20;;;;;;;-146.64;100.00;45269.25;5106227;28;20022;-73
2022/01/11 08:22:39;;;;;;;33.33;18.23;;;;;;;-146.64;100.00;45051.97;5110407;28;20094;-73
2022/01/11 08:25:05;;;;;;;36.45;17.30;;;;;;;-146.64;100.00;44916.72;5093738;28;20508;-74
2022/01/11 08:27:33;;;;;;;34.55;16.15;;;;;;;-146.64;100.00;43957.66;5094133;27;20424;-73
2022/01/11 08:29:58;;;;;;;27.83;15.30;;;;;;;-146.64;100.00;43361.44;5106188;28;20474;-73
2022/01/11 08:32:24;;;;;;;35.90;17.45;;;;;;;-146.64;100.00;42910.75;5102202;27;20027;-73
2022/01/11 08:34:49;;;;;;;34.35;16.33;;;;;;;-146.64;100.00;42609.63;5095893;27;20031;-74
2022/01/11 08:37:14;;;;;;;36.03;16.13;;;;;;;-146.64;100.00;42081.19;5116014;27;20096;-73
2022/01/11 08:39:40;;;;;;;38.10;17.55;;;;;;;-146.64;100.00;42027.94;5098345;27;20427;-73
2022/01/11 08:42:08;;;;;;;30.48;15.88;;;;;;;-146.64;100.00;42136.50;5114920;27;20027;-73
2022/01/11 08:44:34;;;;;;;37.42;17.30;;;;;;;-146.64;100.00;42093.50;5114500;27;20110;-73
2022/01/11 08:46:59;;;;;;;31.63;16.90;;;;;;;-146.64;100.00;42142.66;5094639;27;20027;-73
2022/01/11 08:49:25;;;;;;;28.60;16.25;;;;;;;-146.64;100.00;41886.66;5094281;27;20018;-73
2022/01/11 08:51:50;;;;;;;31.27;15.20;;;;;;;-146.64;100.00;41692.09;5114593;27;20128;-73
2022/01/11 08:54:18;;;;;;;33.63;17.42;;;;;;;-146.64;100.00;41524.19;5097343;27;20046;-73
2022/01/11 08:56:44;;;;;;;30.27;16.20;;;;;;;-146.64;100.00;41651.13;5108834;27;20034;-73
2022/01/11 08:59:10;;;;;;;27.83;15.00;;;;;;;-146.64;100.00;41503.69;5115079;27;20394;-73
2022/01/11 09:01:35;;;;;;;26.27;15.03;;;;;;;-146.64;100.00;41282.53;5095572;27;20023;-73
2022/01/11 09:04:01;;;;;;;28.17;16.27;;;;;;;-146.64;100.00;41257.97;5134092;27;20023;-73
2022/01/11 09:06:27;;;;;;;29.15;15.20;;;;;;;-146.64;100.00;41112.59;5098648;27;20026;-74
2022/01/11 09:08:52;;;;;;;26.60;15.18;;;;;;;-146.64;100.00;41069.59;5109831;27;20023;-73
2022/01/11 09:11:18;;;;;;;29.33;14.50;;;;;;;-146.64;100.00;41147.41;5094530;27;20035;-73
2022/01/11 09:13:43;;;;;;;28.42;14.15;;;;;;;-146.64;100.00;41016.38;5095430;27;20039;-73
2022/01/11 09:16:11;;;;;;;35.50;16.58;;;;;;;-146.64;100.00;40846.44;5104759;27;20367;-73
2022/01/11 09:18:36;;;;;;;31.27;15.73;;;;;;;-146.64;100.00;40840.28;5097465;27;20386;-73
2022/01/11 09:21:03;;;;;;;28.05;15.65;;;;;;;-146.64;100.00;40791.16;5129173;27;20019;-73
2022/01/11 09:23:29;;;;;;;29.00;16.45;;;;;;;-146.64;100.00;40811.63;5087904;28;20030;-73
2022/01/11 09:25:54;;;;;;;35.25;16.67;;;;;;;-146.64;100.00;40715.41;5115175;27;20038;-73
2022/01/11 09:28:20;;;;;;;31.08;15.85;;;;;;;-146.64;100.00;40727.69;5115505;27;20015;-73
2022/01/11 09:30:46;;;;;;;26.67;15.50;;;;;;;-146.64;100.00;40750.19;5097506;27;20388;-73
2022/01/11 09:33:11;;;;;;;29.48;15.57;;;;;;;-146.64;100.00;40776.81;5115145;27;20157;-73
2022/01/11 09:35:37;;;;;;;25.92;14.57;;;;;;;-146.64;100.00;40750.19;5092654;27;20411;-73
2022/01/11 09:38:02;;;;;;;34.40;14.82;;;;;;;-146.64;100.00;40668.31;5113073;27;20054;-73
2022/01/11 09:40:28;;;;;;;32.05;15.20;;;;;;;-146.64;100.00;40676.50;5095356;27;20037;-73
2022/01/11 09:42:54;;;;;;;25.85;15.07;;;;;;;-146.64;100.00;40705.16;5128012;27;20504;-73
2022/01/11 09:45:19;;;;;;;28.73;14.95;;;;;;;-146.64;100.00;40701.06;5106180;27;20038;-73
2022/01/11 09:47:46;;;;;;;27.90;14.32;;;;;;;-146.64;100.00;40676.50;5090545;28;20050;-73
2022/01/11 09:50:12;;;;;;;;;;;;;;;-146.64;100.00;40666.25;5118746;27;20030;-73
2022/01/11 09:52:38;;;;;;;30.10;13.40;;;;;;;-146.64;100.00;40627.38;5113991;27;19983;-73
2022/01/11 09:55:04;;;;;;;28.40;15.38;;;;;;;-146.64;100.00;40568.00;5113182;27;20031;-73
2022/01/11 09:57:29;;;;;;;28.52;14.65;;;;;;;-146.64;100.00;40574.13;5097456;27;20023;-73
2022/01/11 09:59:55;;;;;;;28.27;14.60;;;;;;;-146.64;100.00;40576.19;5094659;27;20028;-73
2022/01/11 10:02:20;;;;;;;26.27;14.30;;;;;;;-146.64;100.00;40506.56;5110644;27;20049;-73
2022/01/11 10:04:45;;;;;;;25.08;13.50;;;;;;;-146.64;100.00;40539.34;5127926;27;20038;-73
2022/01/11 10:07:13;;;;;;;29.42;13.48;;;;;;;-146.64;100.00;40559.81;5128902;27;20028;-73
2022/01/11 10:09:57;;;;;;;31.90;15.13;;;;;;;-146.64;100.00;40545.47;5089056;27;20019;-73
2022/01/11 10:12:23;;;;;;;27.75;13.73;;;;;;;-146.64;100.00;40506.56;5115266;27;20494;-73
2022/01/11 10:14:51;;;;;;;25.63;14.13;;;;;;;-146.64;100.00;40484.06;5093879;27;20050;-73
2022/01/11 10:17:25;;;;;;;27.10;13.52;;;;;;;-146.64;100.00;40508.63;5092742;27;20644;-73
2022/01/11 10:20:00;;;;;;;26.42;14.25;;;;;;;-146.64;100.00;40447.22;5098323;27;20027;-73
2022/01/11 10:22:26;;;;;;;22.23;13.43;;;;;;;-146.64;100.00;40398.06;5112904;27;20042;-73
2022/01/11 10:24:54;;;;;;;28.45;13.45;;;;;;;-146.64;100.00;40389.88;5096030;27;20035;-73
2022/01/11 10:27:24;;;;;;;33.15;13.98;;;;;;;-146.64;100.00;40455.41;5113863;27;20026;-73
2022/01/11 10:30:05;;;;;;;27.52;13.70;;;;;;;-146.64;100.00;40410.34;5130376;27;20680;-73
2022/01/11 10:32:35;;;;;;;27.83;13.63;;;;;;;-146.64;100.00;40385.78;5113918;27;20087;-73
2022/01/11 10:35:06;;;;;;;24.75;13.60;;;;;;;-146.64;100.00;40365.31;5112521;27;20379;-74
2022/01/11 10:37:36;;;;;;;24.33;12.90;;;;;;;-146.64;100.00;40291.63;5114119;27;20038;-73
2022/01/11 10:40:15;;;;;;;23.63;13.63;;;;;;;-146.64;100.00;40275.25;5112099;27;20115;-73
2022/01/11 10:42:48;;;;;;;30.35;16.20;;;;;;;-146.64;100.00;40230.22;5112126;27;20478;-73
2022/01/11 10:45:17;;;;;;;26.50;13.45;;;;;;;-146.64;100.00;40195.41;5120198;27;20079;-73
2022/01/11 10:47:47;;;;;;;26.23;13.73;;;;;;;-146.64;100.00;40177.00;5111697;27;20118;-73
2022/01/11 10:50:19;;;;;;;24.10;13.68;;;;;;;-146.64;100.00;40117.63;5110376;27;20027;-73
2022/01/11 10:52:46;;;;;;;23.95;14.30;;;;;;;-146.64;100.00;40136.03;5113082;27;20086;-73